Time;durP1;ratioP1;P1;durP2;ratioP2;P2;SDS_P1;SDS_P2;PMS_P1;PMS_P2;Temp;Humidity;BMP_temperature;BMP_pressure;BME280_temperature;BME280_humidity;BME280_pressure;Samples;Min_cycle;Max_cycle;Signal;HPM_P1;HPM_P2
2022/04/09 00:00:09;;;;;;;5.80;2.13;;;;;;;;;;4974864;28;20502;-79
2022/04/09 00:02:34;;;;;;;5.97;2.72;;;;;;;;;;4974294;28;20026;-76
2022/04/09 00:05:00;;;;;;;7.68;2.35;;;;;;;;;;4974159;28;20019;-77
2022/04/09 00:07:25;;;;;;;4.15;1.98;;;;;;;;;;4974340;28;20059;-77
2022/04/09 00:09:50;;;;;;;5.18;2.22;;;;;;;;;;4974194;28;20018;-78
2022/04/09 00:12:15;;;;;;;6.38;2.63;;;;;;;;;;4973848;28;20463;-79
2022/04/09 00:14:40;;;;;;;5.13;2.33;;;;;;;;;;4973900;28;20054;-78
2022/04/09 00:17:08;;;;;;;4.28;2.25;;;;;;;;;;4973988;28;20461;-79
2022/04/09 00:19:34;;;;;;;3.87;2.00;;;;;;;;;;4972555;28;20042;-77
2022/04/09 00:21:59;;;;;;;4.18;1.92;;;;;;;;;;4973902;28;20054;-78
2022/04/09 00:24:24;;;;;;;4.85;2.25;;;;;;;;;;4973679;28;20363;-78
2022/04/09 00:26:50;;;;;;;3.65;2.00;;;;;;;;;;4973789;28;20537;-77
2022/04/09 00:29:15;;;;;;;4.38;2.28;;;;;;;;;;4973015;28;20077;-78
2022/04/09 00:31:40;;;;;;;4.22;2.10;;;;;;;;;;4974494;28;20022;-77
2022/04/09 00:34:05;;;;;;;7.28;2.40;;;;;;;;;;4972252;28;20027;-77
2022/04/09 00:36:31;;;;;;;4.72;2.22;;;;;;;;;;4972966;28;20085;-78
2022/04/09 00:38:56;;;;;;;5.57;2.20;;;;;;;;;;4972701;28;20031;-78
2022/04/09 00:41:21;;;;;;;8.63;2.65;;;;;;;;;;4974405;28;20011;-78
2022/04/09 00:43:47;;;;;;;4.50;2.20;;;;;;;;;;4974445;28;20043;-79
2022/04/09 00:46:13;;;;;;;4.32;2.25;;;;;;;;;;4972930;28;20508;-79
2022/04/09 00:48:39;;;;;;;5.20;2.38;;;;;;;;;;4974200;28;20019;-76
2022/04/09 00:51:04;;;;;;;3.33;2.00;;;;;;;;;;4974363;28;20034;-79
2022/04/09 00:53:32;;;;;;;3.72;2.00;;;;;;;;;;4974033;28;20105;-78
2022/04/09 00:56:13;;;;;;;4.65;1.83;;;;;;;;;;4974298;28;20553;-76
2022/04/09 00:58:50;;;;;;;5.28;2.35;;;;;;;;;;4974400;28;20019;-77
2022/04/09 01:01:16;;;;;;;4.18;2.15;;;;;;;;;;4982400;28;20019;-77
2022/04/09 01:03:42;;;;;;;6.28;2.35;;;;;;;;;;4982294;28;20015;-77
2022/04/09 01:06:08;;;;;;;6.70;2.28;;;;;;;;;;4979372;28;20050;-78
2022/04/09 01:08:33;;;;;;;8.35;2.80;;;;;;;;;;4976277;28;20030;-77
2022/04/09 01:10:58;;;;;;;8.40;2.38;;;;;;;;;;4975373;28;20027;-76
2022/04/09 01:13:24;;;;;;;4.38;2.42;;;;;;;;;;4975585;28;20383;-77
2022/04/09 01:15:49;;;;;;;6.13;3.08;;;;;;;;;;4974048;28;20474;-77
2022/04/09 01:18:18;;;;;;;4.78;2.70;;;;;;;;;;4973806;28;20101;-78
2022/04/09 01:20:43;;;;;;;6.15;3.20;;;;;;;;;;4974338;28;20039;-76
2022/04/09 01:23:08;;;;;;;6.05;2.88;;;;;;;;;;4974677;28;20069;-77
2022/04/09 01:25:33;;;;;;;4.95;3.17;;;;;;;;;;4974523;28;20025;-78
2022/04/09 01:27:59;;;;;;;5.78;3.40;;;;;;;;;;4974541;28;20490;-77
2022/04/09 01:30:24;;;;;;;5.75;3.10;;;;;;;;;;4974605;28;20036;-77
2022/04/09 01:32:49;;;;;;;5.80;3.45;;;;;;;;;;4974324;28;20031;-78
2022/04/09 01:35:15;;;;;;;9.02;4.10;;;;;;;;;;4974255;28;20022;-77
2022/04/09 01:37:40;;;;;;;5.18;3.50;;;;;;;;;;4974367;28;20073;-78
2022/04/09 01:40:05;;;;;;;9.00;4.47;;;;;;;;;;4973888;28;20049;-78
2022/04/09 01:42:31;;;;;;;6.28;3.55;;;;;;;;;;4974823;28;20026;-77
2022/04/09 01:44:56;;;;;;;7.50;4.35;;;;;;;;;;4977221;28;20429;-78
2022/04/09 01:47:21;;;;;;;7.15;4.38;;;;;;;;;;4977062;28;20073;-77
2022/04/09 01:49:47;;;;;;;7.03;4.03;;;;;;;;;;4977278;28;20375;-77
2022/04/09 01:52:12;;;;;;;9.48;4.15;;;;;;;;;;4977348;28;20077;-76
2022/04/09 01:54:38;;;;;;;6.82;4.15;;;;;;;;;;4977691;28;20390;-78
2022/04/09 01:57:03;;;;;;;9.55;4.25;;;;;;;;;;4977917;28;20014;-77
2022/04/09 01:59:28;;;;;;;7.75;4.05;;;;;;;;;;4978161;28;20577;-78
2022/04/09 02:01:54;;;;;;;6.20;4.20;;;;;;;;;;4977030;28;20018;-78
2022/04/09 02:04:20;;;;;;;6.78;3.85;;;;;;;;;;4977788;28;20025;-77
2022/04/09 02:06:46;;;;;;;9.43;3.90;;;;;;;;;;4977249;28;20023;-78
2022/04/09 02:09:11;;;;;;;9.82;4.40;;;;;;;;;;4977422;28;20408;-78
2022/04/09 02:11:38;;;;;;;9.30;4.25;;;;;;;;;;4976189;28;20041;-76
2022/04/09 02:14:04;;;;;;;7.28;3.40;;;;;;;;;;4977517;28;20219;-78
2022/04/09 02:16:29;;;;;;;9.25;3.80;;;;;;;;;;4975662;28;20571;-78
2022/04/09 02:18:55;;;;;;;8.48;3.45;;;;;;;;;;4976924;28;20034;-77
2022/04/09 02:21:20;;;;;;;9.10;3.35;;;;;;;;;;4975849;28;20548;-78
2022/04/09 02:23:45;;;;;;;7.05;2.95;;;;;;;;;;4976216;28;20113;-77
2022/04/09 02:26:10;;;;;;;9.55;3.38;;;;;;;;;;4976924;28;20102;-78
2022/04/09 02:28:36;;;;;;;8.63;3.00;;;;;;;;;;4977419;28;20485;-77
2022/04/09 02:31:02;;;;;;;8.75;2.92;;;;;;;;;;4977479;28;20402;-78
2022/04/09 02:33:27;;;;;;;7.97;2.88;;;;;;;;;;4975866;28;20026;-77
2022/04/09 02:35:52;;;;;;;8.82;2.55;;;;;;;;;;4977418;28;20026;-78
2022/04/09 02:38:17;;;;;;;10.00;2.92;;;;;;;;;;4978036;28;20027;-78
2022/04/09 02:40:43;;;;;;;7.20;2.58;;;;;;;;;;4978036;28;20050;-77
2022/04/09 02:43:10;;;;;;;8.45;2.53;;;;;;;;;;4977683;28;20106;-77
2022/04/09 02:45:35;;;;;;;6.40;3.05;;;;;;;;;;4978363;28;20029;-76
2022/04/09 02:48:00;;;;;;;10.30;3.00;;;;;;;;;;4979294;28;20019;-77
2022/04/09 02:50:26;;;;;;;5.60;2.58;;;;;;;;;;4977696;28;20485;-77
2022/04/09 02:52:51;;;;;;;11.13;2.80;;;;;;;;;;4977817;28;20027;-77
2022/04/09 02:55:16;;;;;;;6.13;2.33;;;;;;;;;;4978366;28;20018;-77
2022/04/09 02:57:41;;;;;;;6.13;2.83;;;;;;;;;;4978956;28;20389;-76
2022/04/09 03:00:08;;;;;;;13.10;3.25;;;;;;;;;;4978754;28;20090;-76
2022/04/09 03:02:36;;;;;;;11.55;5.40;;;;;;;;;;4977394;28;20019;-77
2022/04/09 03:05:03;;;;;;;6.35;2.70;;;;;;;;;;4978487;28;20485;-77
2022/04/09 03:07:29;;;;;;;5.45;2.65;;;;;;;;;;4977157;28;20031;-77
2022/04/09 03:09:54;;;;;;;8.60;3.20;;;;;;;;;;4976263;28;20027;-77
2022/04/09 03:12:19;;;;;;;8.35;2.72;;;;;;;;;;4976143;28;20030;-78
2022/04/09 03:14:45;;;;;;;9.90;2.80;;;;;;;;;;4976136;28;20515;-77
2022/04/09 03:17:10;;;;;;;8.32;3.20;;;;;;;;;;4977088;28;20073;-76
2022/04/09 03:19:35;;;;;;;10.32;3.38;;;;;;;;;;4976463;28;20461;-76
2022/04/09 03:22:01;;;;;;;6.93;2.72;;;;;;;;;;4976738;28;20037;-76
2022/04/09 03:24:26;;;;;;;7.70;2.38;;;;;;;;;;4976387;28;20019;-77
2022/04/09 03:26:51;;;;;;;11.75;3.38;;;;;;;;;;4975808;28;20019;-77
2022/04/09 03:29:16;;;;;;;9.15;2.53;;;;;;;;;;4976796;28;20118;-76
2022/04/09 03:31:41;;;;;;;7.82;2.42;;;;;;;;;;4976170;28;20027;-77
2022/04/09 03:34:07;;;;;;;10.18;2.10;;;;;;;;;;4976132;28;20441;-77
2022/04/09 03:36:32;;;;;;;13.15;2.40;;;;;;;;;;4977500;28;20098;-78
2022/04/09 03:38:57;;;;;;;8.70;2.22;;;;;;;;;;4975801;28;20057;-77
2022/04/09 03:41:22;;;;;;;7.82;2.38;;;;;;;;;;4975066;28;20023;-77
2022/04/09 03:43:49;;;;;;;10.43;2.45;;;;;;;;;;4976468;28;20027;-77
2022/04/09 03:46:15;;;;;;;13.40;3.03;;;;;;;;;;4975276;28;20023;-78
2022/04/09 03:48:41;;;;;;;8.05;2.05;;;;;;;;;;4975604;28;20098;-77
2022/04/09 04:04:06;;;;;;;7.03;2.40;;;;;;;;;;5252616;23;20113;-85
2022/04/09 04:22:20;;;;;;;8.75;1.90;;;;;;;;;;5644595;23;20089;-84
2022/04/09 04:47:56;;;;;;;8.80;1.85;;;;;;;;;;5528522;23;20025;-79
2022/04/09 04:50:25;;;;;;;8.73;1.38;;;;;;;;;;5132928;23;20039;-82
2022/04/09 04:58:00;;;;;;;4.70;1.50;;;;;;;;;;5800295;22;20051;-86
2022/04/09 05:15:58;;;;;;;6.45;3.22;;;;;;;;;;5670677;23;20058;-85
2022/04/09 05:41:44;;;;;;;9.50;3.58;;;;;;;;;;5922967;22;20037;-84
2022/04/09 05:49:21;;;;;;;6.68;4.00;;;;;;;;;;5868711;23;20031;-80
2022/04/09 09:05:26;;;;;;;3.60;1.00;;;;;;;;;;5699199;23;20058;-84
2022/04/09 09:13:19;;;;;;;3.85;1.10;;;;;;;;;;5796254;22;20043;-86
2022/04/09 09:18:20;;;;;;;7.55;1.10;;;;;;;;;;5618255;22;20034;-86
2022/04/09 09:20:53;;;;;;;4.40;1.42;;;;;;;;;;5002912;28;20038;-84
2022/04/09 09:52:06;;;;;;;2.92;1.10;;;;;;;;;;5367315;23;20426;-86
2022/04/09 09:54:31;;;;;;;2.83;0.88;;;;;;;;;;5375160;23;20035;-72
2022/04/09 09:56:57;;;;;;;1.98;0.80;;;;;;;;;;4975785;28;20434;-72
2022/04/09 09:59:23;;;;;;;4.43;0.90;;;;;;;;;;4974826;28;20058;-72
2022/04/09 10:01:48;;;;;;;2.38;0.82;;;;;;;;;;4974367;28;20034;-71
2022/04/09 10:04:14;;;;;;;3.75;0.90;;;;;;;;;;4973951;28;20027;-70
2022/04/09 10:06:41;;;;;;;4.47;1.30;;;;;;;;;;4974253;28;20387;-71
2022/04/09 10:09:07;;;;;;;2.75;1.20;;;;;;;;;;4975389;28;20466;-71
2022/04/09 10:11:36;;;;;;;4.18;1.08;;;;;;;;;;4974055;28;20096;-71
2022/04/09 10:14:05;;;;;;;5.55;1.13;;;;;;;;;;4973844;28;20549;-71
2022/04/09 10:16:33;;;;;;;7.57;0.82;;;;;;;;;;4973878;28;20034;-71
2022/04/09 10:19:00;;;;;;;3.85;1.10;;;;;;;;;;4973947;28;20513;-70
2022/04/09 10:21:25;;;;;;;3.08;0.77;;;;;;;;;;4975250;28;20034;-70
2022/04/09 10:23:54;;;;;;;4.70;1.30;;;;;;;;;;4973655;28;20042;-71
2022/04/09 10:26:22;;;;;;;4.20;1.00;;;;;;;;;;4973998;28;20023;-71
2022/04/09 10:28:50;;;;;;;6.03;1.05;;;;;;;;;;4973724;28;20114;-72
2022/04/09 10:31:28;;;;;;;5.80;0.93;;;;;;;;;;4973935;28;20170;-72
2022/04/09 10:33:57;;;;;;;2.33;0.73;;;;;;;;;;4973591;28;20073;-71
2022/04/09 10:36:45;;;;;;;1.83;0.73;;;;;;;;;;4975129;28;20260;-71
2022/04/09 10:39:36;;;;;;;3.47;1.17;;;;;;;;;;4965803;28;20137;-70
2022/04/09 10:42:02;;;;;;;2.88;0.80;;;;;;;;;;4974734;28;20066;-70
2022/04/09 10:44:34;;;;;;;3.55;1.00;;;;;;;;;;4973123;28;20018;-71
2022/04/09 10:47:01;;;;;;;2.97;1.00;;;;;;;;;;4974696;28;20081;-71
2022/04/09 10:49:28;;;;;;;4.30;0.90;;;;;;;;;;4973252;28;20061;-71
2022/04/09 10:51:57;;;;;;;6.90;1.20;;;;;;;;;;4974764;28;20031;-71
2022/04/09 10:54:23;;;;;;;3.70;1.10;;;;;;;;;;4972776;28;20472;-69
2022/04/09 10:56:48;;;;;;;5.45;1.30;;;;;;;;;;4973314;28;20054;-71
2022/04/09 10:59:19;;;;;;;2.92;1.05;;;;;;;;;;4974371;28;20367;-71
2022/04/09 11:01:47;;;;;;;3.33;0.80;;;;;;;;;;4974491;28;20019;-70
2022/04/09 11:04:37;;;;;;;3.72;0.93;;;;;;;;;;4974255;28;20050;-71
2022/04/09 11:07:03;;;;;;;1.85;0.75;;;;;;;;;;4974270;28;20050;-71
2022/04/09 11:09:50;;;;;;;4.43;1.17;;;;;;;;;;4972798;28;20022;-70
2022/04/09 11:12:19;;;;;;;1.88;0.80;;;;;;;;;;4974280;28;20026;-71
2022/04/09 11:14:52;;;;;;;4.25;1.02;;;;;;;;;;4972678;28;20066;-71
2022/04/09 11:17:30;;;;;;;2.63;1.00;;;;;;;;;;4973613;28;20025;-71
2022/04/09 11:19:59;;;;;;;2.45;0.70;;;;;;;;;;4972743;28;20022;-71
2022/04/09 11:22:41;;;;;;;3.20;1.10;;;;;;;;;;4972945;28;20026;-71
2022/04/09 11:25:16;;;;;;;3.72;1.15;;;;;;;;;;4973870;28;20099;-71
2022/04/09 11:27:42;;;;;;;3.80;0.90;;;;;;;;;;4974034;28;20068;-71
2022/04/09 11:30:08;;;;;;;4.05;1.05;;;;;;;;;;4973933;28;20019;-71
2022/04/09 11:32:35;;;;;;;6.00;1.00;;;;;;;;;;4972463;28;20027;-70
2022/04/09 11:35:01;;;;;;;3.80;1.10;;;;;;;;;;4972332;28;20029;-71
2022/04/09 11:37:30;;;;;;;4.97;1.10;;;;;;;;;;4972358;28;20386;-71
2022/04/09 11:39:55;;;;;;;;;;;;;;;;;;4972851;28;20019;-71
2022/04/09 11:42:20;;;;;;;4.22;1.30;;;;;;;;;;4973585;28;19953;-71
2022/04/09 11:44:46;;;;;;;2.72;0.85;;;;;;;;;;4972196;28;20018;-71
2022/04/09 11:47:11;;;;;;;3.10;1.15;;;;;;;;;;4973106;28;20034;-71
2022/04/09 11:49:37;;;;;;;3.35;0.77;;;;;;;;;;4972082;28;20398;-71
2022/04/09 11:52:03;;;;;;;3.80;0.98;;;;;;;;;;4973396;28;20027;-71
2022/04/09 11:54:32;;;;;;;2.58;0.88;;;;;;;;;;4973144;28;20030;-71
2022/04/09 11:56:58;;;;;;;4.32;1.05;;;;;;;;;;4973199;28;20042;-71
2022/04/09 11:59:23;;;;;;;3.00;0.93;;;;;;;;;;4971883;28;20027;-71
2022/04/09 12:01:51;;;;;;;3.85;1.13;;;;;;;;;;4973362;28;20023;-71
2022/04/09 12:04:16;;;;;;;2.25;1.00;;;;;;;;;;4971546;28;20023;-71
2022/04/09 12:06:42;;;;;;;2.83;0.90;;;;;;;;;;4973180;28;20541;-71
2022/04/09 12:09:08;;;;;;;4.25;0.93;;;;;;;;;;4971564;28;20524;-71
2022/04/09 12:11:33;;;;;;;3.58;1.10;;;;;;;;;;4972916;28;20030;-71
2022/04/09 12:14:13;;;;;;;3.25;0.80;;;;;;;;;;4971647;28;20023;-71
2022/04/09 12:16:39;;;;;;;6.00;1.00;;;;;;;;;;4973809;28;20038;-71
2022/04/09 12:19:07;;;;;;;6.57;1.00;;;;;;;;;;4973025;28;20529;-72
2022/04/09 12:21:32;;;;;;;2.58;0.93;;;;;;;;;;4971762;28;20074;-71
2022/04/09 12:24:05;;;;;;;4.40;1.20;;;;;;;;;;4972639;28;20104;-71
2022/04/09 12:26:31;;;;;;;4.18;0.90;;;;;;;;;;4971773;28;20030;-71
2022/04/09 12:29:16;;;;;;;2.63;0.85;;;;;;;;;;4972925;28;20055;-71
2022/04/09 12:31:42;;;;;;;2.88;1.10;;;;;;;;;;4971946;28;20034;-71
2022/04/09 12:34:07;;;;;;;1.98;0.80;;;;;;;;;;4972692;28;20020;-72
2022/04/09 12:36:32;;;;;;;3.63;1.30;;;;;;;;;;4973054;28;20097;-72
2022/04/09 12:38:58;;;;;;;4.57;1.20;;;;;;;;;;4971448;28;20019;-71
2022/04/09 12:41:23;;;;;;;2.90;1.17;;;;;;;;;;4971553;28;20573;-71
2022/04/09 12:43:52;;;;;;;4.90;0.75;;;;;;;;;;4972297;28;20018;-71
2022/04/09 12:46:18;;;;;;;6.25;1.08;;;;;;;;;;4972627;28;20112;-72
2022/04/09 12:48:47;;;;;;;4.15;1.23;;;;;;;;;;4972679;28;20038;-72
2022/04/09 12:51:20;;;;;;;3.22;0.80;;;;;;;;;;4972682;28;20027;-70
2022/04/09 12:53:48;;;;;;;2.83;0.90;;;;;;;;;;4970949;28;20030;-70
2022/04/09 12:56:14;;;;;;;2.35;0.60;;;;;;;;;;4971208;28;20078;-70
2022/04/09 12:58:39;;;;;;;1.75;0.60;;;;;;;;;;4972518;28;20034;-70
2022/04/09 13:01:07;;;;;;;1.98;0.60;;;;;;;;;;4972407;28;20537;-70
2022/04/09 13:03:33;;;;;;;1.70;0.73;;;;;;;;;;4972381;28;20121;-70
2022/04/09 13:05:59;;;;;;;1.70;0.60;;;;;;;;;;4971120;28;20029;-71
2022/04/09 13:08:24;;;;;;;3.75;0.90;;;;;;;;;;4971268;28;20026;-71
2022/04/09 13:10:49;;;;;;;5.03;0.90;;;;;;;;;;4972359;28;20094;-70
2022/04/09 13:13:18;;;;;;;2.42;0.80;;;;;;;;;;4972114;28;20022;-70
2022/04/09 13:15:44;;;;;;;2.15;0.70;;;;;;;;;;4970800;28;20023;-70
2022/04/09 13:18:09;;;;;;;5.75;1.08;;;;;;;;;;4972665;28;20042;-70
2022/04/09 13:20:35;;;;;;;3.45;1.58;;;;;;;;;;4970967;28;20023;-71
2022/04/09 13:23:01;;;;;;;6.13;1.33;;;;;;;;;;4972189;28;20011;-71
2022/04/09 13:25:26;;;;;;;4.85;0.98;;;;;;;;;;4972320;28;20015;-70
2022/04/09 13:27:54;;;;;;;2.95;0.93;;;;;;;;;;4970800;28;20389;-70
2022/04/09 13:30:20;;;;;;;4.15;0.90;;;;;;;;;;4972616;28;20025;-70
2022/04/09 13:32:45;;;;;;;2.33;0.80;;;;;;;;;;4972040;28;20019;-70
2022/04/09 13:35:11;;;;;;;5.25;1.05;;;;;;;;;;4970781;28;20026;-70
2022/04/09 13:37:36;;;;;;;1.73;0.88;;;;;;;;;;4972469;28;20389;-71
2022/04/09 13:40:01;;;;;;;4.72;1.15;;;;;;;;;;4972956;28;20546;-71
2022/04/09 13:42:27;;;;;;;7.70;1.52;;;;;;;;;;4975623;28;20025;-70
2022/04/09 13:44:52;;;;;;;2.78;1.30;;;;;;;;;;4974197;28;20025;-72
2022/04/09 13:47:18;;;;;;;3.85;1.13;;;;;;;;;;4974103;28;20027;-71
2022/04/09 13:49:43;;;;;;;1.58;0.80;;;;;;;;;;4975723;28;20070;-71
2022/04/09 13:52:09;;;;;;;2.58;0.90;;;;;;;;;;4975486;28;20405;-72
2022/04/09 13:54:34;;;;;;;3.55;1.10;;;;;;;;;;4973869;28;20043;-71
2022/04/09 13:56:59;;;;;;;3.75;0.90;;;;;;;;;;4973984;28;20419;-71
2022/04/09 13:59:25;;;;;;;4.80;1.10;;;;;;;;;;4974060;28;20103;-71
2022/04/09 14:01:50;;;;;;;3.63;1.10;;;;;;;;;;4974182;28;20023;-71
2022/04/09 14:04:15;;;;;;;3.25;1.00;;;;;;;;;;4975400;28;20027;-71
2022/04/09 14:06:41;;;;;;;2.60;1.00;;;;;;;;;;4975484;28;20372;-71
2022/04/09 14:09:06;;;;;;;2.70;0.90;;;;;;;;;;4974062;28;20050;-71
2022/04/09 14:11:31;;;;;;;3.47;0.80;;;;;;;;;;4975208;28;20102;-71
2022/04/09 14:13:57;;;;;;;2.25;1.00;;;;;;;;;;4974868;28;20450;-71
2022/04/09 14:16:22;;;;;;;2.75;0.90;;;;;;;;;;4975022;28;20453;-70
2022/04/09 14:18:48;;;;;;;3.63;0.80;;;;;;;;;;4973540;28;20026;-71
2022/04/09 14:21:13;;;;;;;2.60;0.65;;;;;;;;;;4973664;28;20027;-71
2022/04/09 14:23:38;;;;;;;2.60;0.88;;;;;;;;;;4973540;28;20015;-71
2022/04/09 14:26:04;;;;;;;1.77;0.57;;;;;;;;;;4975020;28;20041;-69
2022/04/09 14:28:29;;;;;;;5.68;0.80;;;;;;;;;;4975574;28;20098;-69
2022/04/09 14:30:54;;;;;;;1.50;0.50;;;;;;;;;;4973413;28;20023;-69
2022/04/09 14:33:20;;;;;;;1.50;0.60;;;;;;;;;;4974872;28;20018;-72
2022/04/09 14:35:46;;;;;;;7.50;3.75;;;;;;;;;;4974705;28;20027;-71
2022/04/09 14:38:11;;;;;;;6.05;3.35;;;;;;;;;;4973564;28;20047;-70
2022/04/09 14:40:37;;;;;;;14.30;6.00;;;;;;;;;;4974723;28;20130;-70
2022/04/09 14:43:03;;;;;;;6.78;2.55;;;;;;;;;;4973122;28;20047;-70
2022/04/09 14:45:28;;;;;;;3.97;1.30;;;;;;;;;;4974609;28;20067;-70
2022/04/09 14:47:53;;;;;;;7.30;1.08;;;;;;;;;;4973260;28;20030;-71
2022/04/09 14:50:19;;;;;;;4.20;1.45;;;;;;;;;;4974722;28;20033;-70
2022/04/09 14:52:45;;;;;;;1.77;0.80;;;;;;;;;;4973356;28;20076;-70
2022/04/09 14:55:11;;;;;;;2.65;0.57;;;;;;;;;;4973128;28;20109;-69
2022/04/09 14:57:36;;;;;;;4.28;0.80;;;;;;;;;;4973078;28;20057;-70
2022/04/09 15:00:02;;;;;;;3.10;0.80;;;;;;;;;;4974587;28;20066;-73
2022/04/09 15:02:28;;;;;;;2.70;0.65;;;;;;;;;;4974793;28;20034;-72
2022/04/09 15:04:53;;;;;;;2.47;0.50;;;;;;;;;;4974937;28;20390;-72
2022/04/09 15:07:20;;;;;;;3.97;0.60;;;;;;;;;;4973137;28;20022;-73
2022/04/09 15:09:47;;;;;;;4.00;0.60;;;;;;;;;;4974381;28;20027;-72
2022/04/09 15:12:14;;;;;;;1.77;0.52;;;;;;;;;;4973255;28;20517;-71
2022/04/09 15:14:39;;;;;;;3.70;0.95;;;;;;;;;;4973029;28;20027;-72
2022/04/09 15:17:04;;;;;;;1.92;0.90;;;;;;;;;;4974410;28;20027;-74
2022/04/09 15:19:30;;;;;;;0.93;0.40;;;;;;;;;;4974183;28;20023;-71
2022/04/09 15:21:58;;;;;;;4.20;1.30;;;;;;;;;;4973969;28;20039;-70
2022/04/09 15:24:23;;;;;;;1.52;0.50;;;;;;;;;;4972907;28;20026;-72
2022/04/09 15:26:48;;;;;;;2.38;0.73;;;;;;;;;;4974145;28;20074;-71
2022/04/09 15:29:14;;;;;;;3.25;0.82;;;;;;;;;;4973750;28;20076;-71
2022/04/09 15:31:39;;;;;;;3.00;0.88;;;;;;;;;;4973976;28;20030;-70
2022/04/09 15:34:04;;;;;;;1.80;0.73;;;;;;;;;;4972441;28;20495;-72
2022/04/09 15:36:29;;;;;;;3.30;0.70;;;;;;;;;;4972541;28;20393;-70
2022/04/09 15:38:55;;;;;;;1.80;0.63;;;;;;;;;;4972469;28;20026;-72
2022/04/09 15:41:21;;;;;;;1.35;0.47;;;;;;;;;;4973722;28;20416;-72
2022/04/09 15:43:46;;;;;;;0.95;0.47;;;;;;;;;;4973781;28;20029;-72
2022/04/09 15:46:11;;;;;;;1.77;0.70;;;;;;;;;;4972265;28;20022;-72
2022/04/09 15:48:37;;;;;;;1.38;0.50;;;;;;;;;;4973614;28;20023;-70
2022/04/09 15:51:03;;;;;;;1.65;0.60;;;;;;;;;;4972185;28;20015;-72
2022/04/09 15:53:28;;;;;;;1.38;0.57;;;;;;;;;;4971501;28;20023;-72
2022/04/09 21:57:55;;;;;;;;;;;;;;;;;;;;;
2022/04/09 22:44:17;;;;;;;3.67;1.10;;;;;;;;;;5318191;23;20053;-79
2022/04/09 22:46:42;;;;;;;3.72;1.40;;;;;;;;;;4976388;28;20019;-78
2022/04/09 22:49:07;;;;;;;2.85;1.00;;;;;;;;;;4975237;28;20524;-78
2022/04/09 22:51:33;;;;;;;2.70;1.08;;;;;;;;;;4976431;28;20050;-79
2022/04/09 22:53:58;;;;;;;2.53;0.98;;;;;;;;;;4974761;28;20402;-78
2022/04/09 22:56:23;;;;;;;4.43;1.00;;;;;;;;;;4974944;28;20027;-78
2022/04/09 22:58:51;;;;;;;3.47;0.95;;;;;;;;;;4974739;28;20482;-78
2022/04/09 23:01:16;;;;;;;6.15;1.27;;;;;;;;;;4976103;28;20029;-78
2022/04/09 23:03:41;;;;;;;4.38;1.10;;;;;;;;;;4975377;28;20385;-78
2022/04/09 23:06:06;;;;;;;5.68;1.20;;;;;;;;;;4975659;28;20046;-77
2022/04/09 23:08:32;;;;;;;3.42;1.00;;;;;;;;;;4974441;28;20015;-79
2022/04/09 23:11:03;;;;;;;2.10;0.90;;;;;;;;;;4975153;28;20027;-79
2022/04/09 23:13:28;;;;;;;3.55;1.00;;;;;;;;;;4973973;28;20478;-79
2022/04/09 23:15:53;;;;;;;2.25;0.98;;;;;;;;;;4974987;28;20026;-76
2022/04/09 23:18:18;;;;;;;1.70;0.85;;;;;;;;;;4975538;28;20018;-77
2022/04/09 23:20:44;;;;;;;1.75;0.85;;;;;;;;;;4975389;28;20018;-79
2022/04/09 23:23:09;;;;;;;3.10;0.90;;;;;;;;;;4975618;28;20029;-78
2022/04/09 23:25:34;;;;;;;3.00;0.93;;;;;;;;;;4975266;28;20027;-79
2022/04/09 23:27:59;;;;;;;4.20;1.10;;;;;;;;;;4975664;28;20026;-79
2022/04/09 23:30:25;;;;;;;2.22;0.90;;;;;;;;;;4974180;28;20031;-78
2022/04/09 23:32:50;;;;;;;1.88;0.93;;;;;;;;;;4973725;28;20537;-78
2022/04/09 23:35:17;;;;;;;2.63;0.95;;;;;;;;;;4975081;28;20073;-79
2022/04/09 23:37:42;;;;;;;4.63;1.08;;;;;;;;;;4975566;28;20026;-77
2022/04/09 23:40:08;;;;;;;3.20;1.20;;;;;;;;;;4974882;28;20485;-78
2022/04/09 23:42:33;;;;;;;5.00;1.25;;;;;;;;;;4974934;28;20098;-78
2022/04/09 23:44:58;;;;;;;4.18;1.15;;;;;;;;;;4974716;28;20031;-79
2022/04/09 23:47:24;;;;;;;5.82;1.20;;;;;;;;;;4974508;28;20026;-77
2022/04/09 23:49:49;;;;;;;4.72;1.05;;;;;;;;;;4975359;28;20037;-78
2022/04/09 23:52:14;;;;;;;3.15;0.93;;;;;;;;;;4975434;28;20038;-77
2022/04/09 23:54:41;;;;;;;5.07;1.30;;;;;;;;;;4976116;28;20042;-78
2022/04/09 23:57:06;;;;;;;3.95;1.67;;;;;;;;;;4975804;28;20046;-78
2022/04/09 23:59:31;;;;;;;5.93;1.40;;;;;;;;;;4976259;28;20105;-78
